sensor_id;sensor_type;location;lat;lon;timestamp;P1;durP1;ratioP1;P2;durP2;ratioP2
73150;SDS011;61354;50.758;6.106;2022-07-22T00:00:13;12.50;;;5.45;;
73150;SDS011;61354;50.758;6.106;2022-07-22T00:02:39;9.85;;;4.95;;
73150;SDS011;61354;50.758;6.106;2022-07-22T00:05:05;9.57;;;5.00;;
73150;SDS011;61354;50.758;6.106;2022-07-22T00:07:31;11.73;;;5.75;;
73150;SDS011;61354;50.758;6.106;2022-07-22T00:09:57;9.32;;;5.20;;
73150;SDS011;61354;50.758;6.106;2022-07-22T00:12:23;10.95;;;5.63;;
73150;SDS011;61354;50.758;6.106;2022-07-22T00:14:49;11.73;;;5.00;;
73150;SDS011;61354;50.758;6.106;2022-07-22T00:17:15;9.90;;;5.55;;
73150;SDS011;61354;50.758;6.106;2022-07-22T00:19:40;8.73;;;5.10;;
73150;SDS011;61354;50.758;6.106;2022-07-22T00:22:06;9.55;;;4.88;;
73150;SDS011;61354;50.758;6.106;2022-07-22T00:24:31;9.45;;;4.70;;
73150;SDS011;61354;50.758;6.106;2022-07-22T00:26:57;11.65;;;5.53;;
73150;SDS011;61354;50.758;6.106;2022-07-22T00:29:22;12.93;;;5.07;;
73150;SDS011;61354;50.758;6.106;2022-07-22T00:31:48;10.07;;;4.60;;
73150;SDS011;61354;50.758;6.106;2022-07-22T00:34:13;10.77;;;5.03;;
73150;SDS011;61354;50.758;6.106;2022-07-22T00:36:39;9.73;;;5.00;;
73150;SDS011;61354;50.758;6.106;2022-07-22T00:39:05;9.98;;;5.10;;
73150;SDS011;61354;50.758;6.106;2022-07-22T00:41:30;9.93;;;4.57;;
73150;SDS011;61354;50.758;6.106;2022-07-22T00:44:00;10.95;;;4.60;;
73150;SDS011;61354;50.758;6.106;2022-07-22T00:46:28;12.65;;;5.88;;
73150;SDS011;61354;50.758;6.106;2022-07-22T00:48:54;10.10;;;4.63;;
73150;SDS011;61354;50.758;6.106;2022-07-22T00:51:21;10.63;;;5.05;;
73150;SDS011;61354;50.758;6.106;2022-07-22T00:53:47;11.35;;;5.00;;
73150;SDS011;61354;50.758;6.106;2022-07-22T00:56:13;11.55;;;5.57;;
73150;SDS011;61354;50.758;6.106;2022-07-22T00:58:40;10.63;;;5.20;;
73150;SDS011;61354;50.758;6.106;2022-07-22T01:01:06;9.85;;;5.15;;
73150;SDS011;61354;50.758;6.106;2022-07-22T01:03:32;11.75;;;4.57;;
73150;SDS011;61354;50.758;6.106;2022-07-22T01:06:01;8.63;;;4.50;;
73150;SDS011;61354;50.758;6.106;2022-07-22T01:08:27;8.90;;;4.13;;
73150;SDS011;61354;50.758;6.106;2022-07-22T01:10:52;8.68;;;3.97;;
73150;SDS011;61354;50.758;6.106;2022-07-22T01:13:18;9.52;;;4.03;;
73150;SDS011;61354;50.758;6.106;2022-07-22T01:15:43;9.30;;;4.45;;
73150;SDS011;61354;50.758;6.106;2022-07-22T01:18:09;8.70;;;4.68;;
73150;SDS011;61354;50.758;6.106;2022-07-22T01:20:35;10.77;;;4.65;;
73150;SDS011;61354;50.758;6.106;2022-07-22T01:23:01;8.70;;;4.65;;
73150;SDS011;61354;50.758;6.106;2022-07-22T01:25:26;10.55;;;5.95;;
73150;SDS011;61354;50.758;6.106;2022-07-22T01:27:53;11.15;;;4.70;;
73150;SDS011;61354;50.758;6.106;2022-07-22T01:30:19;9.00;;;4.75;;
73150;SDS011;61354;50.758;6.106;2022-07-22T01:32:44;11.07;;;4.90;;
73150;SDS011;61354;50.758;6.106;2022-07-22T01:35:10;9.55;;;4.47;;
73150;SDS011;61354;50.758;6.106;2022-07-22T01:37:36;10.02;;;4.50;;
73150;SDS011;61354;50.758;6.106;2022-07-22T01:40:01;9.55;;;4.40;;
73150;SDS011;61354;50.758;6.106;2022-07-22T01:42:28;10.23;;;4.07;;
73150;SDS011;61354;50.758;6.106;2022-07-22T01:44:53;11.45;;;4.60;;
73150;SDS011;61354;50.758;6.106;2022-07-22T01:47:19;8.98;;;3.47;;
73150;SDS011;61354;50.758;6.106;2022-07-22T01:49:44;8.85;;;3.70;;
73150;SDS011;61354;50.758;6.106;2022-07-22T01:52:10;7.45;;;3.42;;
73150;SDS011;61354;50.758;6.106;2022-07-22T01:54:35;5.97;;;2.70;;
73150;SDS011;61354;50.758;6.106;2022-07-22T01:57:01;7.53;;;2.42;;
73150;SDS011;61354;50.758;6.106;2022-07-22T01:59:27;5.70;;;2.72;;
73150;SDS011;61354;50.758;6.106;2022-07-22T02:01:52;5.28;;;2.90;;
73150;SDS011;61354;50.758;6.106;2022-07-22T02:04:19;8.23;;;3.63;;
73150;SDS011;61354;50.758;6.106;2022-07-22T02:06:44;10.45;;;4.20;;
73150;SDS011;61354;50.758;6.106;2022-07-22T02:09:10;10.63;;;4.00;;
73150;SDS011;61354;50.758;6.106;2022-07-22T02:11:35;9.45;;;4.00;;
73150;SDS011;61354;50.758;6.106;2022-07-22T02:14:01;9.52;;;4.13;;
73150;SDS011;61354;50.758;6.106;2022-07-22T02:16:26;7.75;;;4.03;;
73150;SDS011;61354;50.758;6.106;2022-07-22T02:18:52;9.73;;;4.05;;
73150;SDS011;61354;50.758;6.106;2022-07-22T02:21:18;10.30;;;4.28;;
73150;SDS011;61354;50.758;6.106;2022-07-22T02:23:44;10.30;;;4.65;;
73150;SDS011;61354;50.758;6.106;2022-07-22T02:26:09;10.98;;;4.78;;
73150;SDS011;61354;50.758;6.106;2022-07-22T02:28:35;8.00;;;4.40;;
73150;SDS011;61354;50.758;6.106;2022-07-22T02:31:00;10.63;;;4.43;;
73150;SDS011;61354;50.758;6.106;2022-07-22T02:33:26;9.68;;;4.65;;
73150;SDS011;61354;50.758;6.106;2022-07-22T02:35:51;10.45;;;4.97;;
73150;SDS011;61354;50.758;6.106;2022-07-22T02:38:17;9.60;;;4.35;;
73150;SDS011;61354;50.758;6.106;2022-07-22T02:40:42;9.50;;;4.30;;
73150;SDS011;61354;50.758;6.106;2022-07-22T02:43:08;10.00;;;4.68;;
73150;SDS011;61354;50.758;6.106;2022-07-22T02:45:33;10.43;;;4.30;;
73150;SDS011;61354;50.758;6.106;2022-07-22T02:47:59;10.32;;;4.35;;
73150;SDS011;61354;50.758;6.106;2022-07-22T02:50:25;7.03;;;4.20;;
73150;SDS011;61354;50.758;6.106;2022-07-22T02:52:51;9.05;;;3.67;;
73150;SDS011;61354;50.758;6.106;2022-07-22T02:55:16;9.80;;;4.07;;
73150;SDS011;61354;50.758;6.106;2022-07-22T02:57:42;8.00;;;4.03;;
73150;SDS011;61354;50.758;6.106;2022-07-22T03:00:08;6.95;;;3.70;;
73150;SDS011;61354;50.758;6.106;2022-07-22T03:02:36;6.15;;;3.30;;
73150;SDS011;61354;50.758;6.106;2022-07-22T03:05:03;7.13;;;3.50;;
73150;SDS011;61354;50.758;6.106;2022-07-22T03:07:29;7.25;;;3.67;;
73150;SDS011;61354;50.758;6.106;2022-07-22T03:09:55;8.07;;;3.47;;
73150;SDS011;61354;50.758;6.106;2022-07-22T03:12:20;8.57;;;3.20;;
73150;SDS011;61354;50.758;6.106;2022-07-22T03:14:46;6.43;;;3.55;;
73150;SDS011;61354;50.758;6.106;2022-07-22T03:17:11;5.57;;;3.03;;
73150;SDS011;61354;50.758;6.106;2022-07-22T03:19:37;7.90;;;3.38;;
73150;SDS011;61354;50.758;6.106;2022-07-22T03:22:02;6.50;;;2.97;;
73150;SDS011;61354;50.758;6.106;2022-07-22T03:24:28;6.28;;;2.83;;
73150;SDS011;61354;50.758;6.106;2022-07-22T03:26:54;4.53;;;2.72;;
73150;SDS011;61354;50.758;6.106;2022-07-22T03:29:19;5.10;;;2.15;;
73150;SDS011;61354;50.758;6.106;2022-07-22T03:31:44;5.57;;;2.30;;
73150;SDS011;61354;50.758;6.106;2022-07-22T03:34:10;4.97;;;2.10;;
73150;SDS011;61354;50.758;6.106;2022-07-22T03:36:35;6.30;;;2.50;;
73150;SDS011;61354;50.758;6.106;2022-07-22T03:39:01;4.57;;;2.47;;
73150;SDS011;61354;50.758;6.106;2022-07-22T03:41:27;4.20;;;2.10;;
73150;SDS011;61354;50.758;6.106;2022-07-22T03:43:52;4.43;;;2.10;;
73150;SDS011;61354;50.758;6.106;2022-07-22T03:46:18;4.57;;;2.05;;
73150;SDS011;61354;50.758;6.106;2022-07-22T03:48:43;8.18;;;3.05;;
73150;SDS011;61354;50.758;6.106;2022-07-22T03:51:08;4.20;;;2.28;;
73150;SDS011;61354;50.758;6.106;2022-07-22T03:53:34;5.35;;;2.40;;
73150;SDS011;61354;50.758;6.106;2022-07-22T03:56:00;6.00;;;2.50;;
73150;SDS011;61354;50.758;6.106;2022-07-22T03:58:26;3.55;;;2.03;;
73150;SDS011;61354;50.758;6.106;2022-07-22T04:00:53;3.42;;;2.20;;
73150;SDS011;61354;50.758;6.106;2022-07-22T04:03:19;4.82;;;2.55;;
73150;SDS011;61354;50.758;6.106;2022-07-22T04:05:44;5.30;;;2.63;;
73150;SDS011;61354;50.758;6.106;2022-07-22T04:08:11;5.20;;;2.70;;
73150;SDS011;61354;50.758;6.106;2022-07-22T04:10:37;7.93;;;4.28;;
73150;SDS011;61354;50.758;6.106;2022-07-22T04:13:03;7.72;;;3.45;;
73150;SDS011;61354;50.758;6.106;2022-07-22T04:15:28;5.88;;;3.53;;
73150;SDS011;61354;50.758;6.106;2022-07-22T04:17:54;6.25;;;3.88;;
73150;SDS011;61354;50.758;6.106;2022-07-22T04:20:20;5.50;;;3.35;;
73150;SDS011;61354;50.758;6.106;2022-07-22T04:22:45;7.32;;;4.00;;
73150;SDS011;61354;50.758;6.106;2022-07-22T04:25:10;5.82;;;3.58;;
73150;SDS011;61354;50.758;6.106;2022-07-22T04:27:36;7.38;;;3.53;;
73150;SDS011;61354;50.758;6.106;2022-07-22T04:30:02;6.28;;;3.40;;
73150;SDS011;61354;50.758;6.106;2022-07-22T04:32:28;6.03;;;3.40;;
73150;SDS011;61354;50.758;6.106;2022-07-22T04:34:54;6.38;;;3.00;;
73150;SDS011;61354;50.758;6.106;2022-07-22T04:37:19;5.22;;;2.97;;
73150;SDS011;61354;50.758;6.106;2022-07-22T04:39:44;5.35;;;2.72;;
73150;SDS011;61354;50.758;6.106;2022-07-22T04:42:10;6.03;;;2.63;;
73150;SDS011;61354;50.758;6.106;2022-07-22T04:44:36;6.22;;;3.08;;
73150;SDS011;61354;50.758;6.106;2022-07-22T04:47:01;4.60;;;2.80;;
73150;SDS011;61354;50.758;6.106;2022-07-22T04:49:27;6.03;;;2.85;;
73150;SDS011;61354;50.758;6.106;2022-07-22T04:51:52;6.95;;;3.35;;
73150;SDS011;61354;50.758;6.106;2022-07-22T04:54:18;7.20;;;3.13;;
73150;SDS011;61354;50.758;6.106;2022-07-22T04:56:43;6.57;;;2.92;;
73150;SDS011;61354;50.758;6.106;2022-07-22T04:59:09;7.07;;;3.60;;
73150;SDS011;61354;50.758;6.106;2022-07-22T05:01:34;6.28;;;3.25;;
73150;SDS011;61354;50.758;6.106;2022-07-22T05:04:00;7.75;;;3.35;;
73150;SDS011;61354;50.758;6.106;2022-07-22T05:06:26;10.50;;;3.50;;
73150;SDS011;61354;50.758;6.106;2022-07-22T05:08:51;6.47;;;3.50;;
73150;SDS011;61354;50.758;6.106;2022-07-22T05:11:17;7.90;;;3.92;;
73150;SDS011;61354;50.758;6.106;2022-07-22T05:13:43;6.10;;;3.60;;
73150;SDS011;61354;50.758;6.106;2022-07-22T05:16:08;6.18;;;3.28;;
73150;SDS011;61354;50.758;6.106;2022-07-22T05:18:34;7.53;;;4.35;;
73150;SDS011;61354;50.758;6.106;2022-07-22T05:21:00;7.72;;;4.15;;
73150;SDS011;61354;50.758;6.106;2022-07-22T05:23:26;7.03;;;3.67;;
73150;SDS011;61354;50.758;6.106;2022-07-22T05:25:51;7.40;;;4.35;;
73150;SDS011;61354;50.758;6.106;2022-07-22T05:28:17;5.30;;;3.20;;
73150;SDS011;61354;50.758;6.106;2022-07-22T05:30:44;6.38;;;3.75;;
73150;SDS011;61354;50.758;6.106;2022-07-22T05:33:09;7.30;;;3.70;;
73150;SDS011;61354;50.758;6.106;2022-07-22T05:35:35;6.70;;;3.63;;
73150;SDS011;61354;50.758;6.106;2022-07-22T05:38:00;7.07;;;3.65;;
73150;SDS011;61354;50.758;6.106;2022-07-22T05:40:26;4.88;;;2.70;;
73150;SDS011;61354;50.758;6.106;2022-07-22T05:42:54;4.75;;;2.53;;
73150;SDS011;61354;50.758;6.106;2022-07-22T05:45:20;4.43;;;2.10;;
73150;SDS011;61354;50.758;6.106;2022-07-22T05:47:45;4.90;;;2.40;;
73150;SDS011;61354;50.758;6.106;2022-07-22T05:50:11;4.30;;;3.03;;
73150;SDS011;61354;50.758;6.106;2022-07-22T05:52:37;4.43;;;2.60;;
73150;SDS011;61354;50.758;6.106;2022-07-22T05:55:04;4.78;;;2.80;;
73150;SDS011;61354;50.758;6.106;2022-07-22T05:57:31;4.78;;;2.53;;
73150;SDS011;61354;50.758;6.106;2022-07-22T05:59:56;5.07;;;2.42;;
73150;SDS011;61354;50.758;6.106;2022-07-22T06:02:22;4.60;;;2.38;;
73150;SDS011;61354;50.758;6.106;2022-07-22T06:04:48;4.65;;;2.55;;
73150;SDS011;61354;50.758;6.106;2022-07-22T06:07:13;6.13;;;2.53;;
73150;SDS011;61354;50.758;6.106;2022-07-22T06:09:39;5.28;;;2.70;;
73150;SDS011;61354;50.758;6.106;2022-07-22T06:12:04;4.55;;;2.60;;
73150;SDS011;61354;50.758;6.106;2022-07-22T06:14:30;6.65;;;2.50;;
73150;SDS011;61354;50.758;6.106;2022-07-22T06:16:56;6.10;;;2.78;;
73150;SDS011;61354;50.758;6.106;2022-07-22T06:19:22;5.03;;;2.90;;
73150;SDS011;61354;50.758;6.106;2022-07-22T06:21:49;5.97;;;3.38;;
73150;SDS011;61354;50.758;6.106;2022-07-22T06:24:15;6.35;;;2.80;;
73150;SDS011;61354;50.758;6.106;2022-07-22T06:26:40;7.18;;;3.42;;
73150;SDS011;61354;50.758;6.106;2022-07-22T06:29:06;6.93;;;3.45;;
73150;SDS011;61354;50.758;6.106;2022-07-22T06:31:32;6.60;;;3.28;;
73150;SDS011;61354;50.758;6.106;2022-07-22T06:33:57;5.28;;;3.05;;
73150;SDS011;61354;50.758;6.106;2022-07-22T06:36:23;7.38;;;3.92;;
73150;SDS011;61354;50.758;6.106;2022-07-22T06:38:49;5.38;;;3.65;;
73150;SDS011;61354;50.758;6.106;2022-07-22T06:41:14;7.18;;;3.22;;
73150;SDS011;61354;50.758;6.106;2022-07-22T06:43:44;6.65;;;2.80;;
73150;SDS011;61354;50.758;6.106;2022-07-22T06:46:10;7.20;;;3.20;;
73150;SDS011;61354;50.758;6.106;2022-07-22T06:48:36;5.47;;;3.40;;
73150;SDS011;61354;50.758;6.106;2022-07-22T06:51:01;6.50;;;3.55;;
73150;SDS011;61354;50.758;6.106;2022-07-22T06:53:27;6.60;;;4.68;;
73150;SDS011;61354;50.758;6.106;2022-07-22T06:55:52;8.63;;;5.82;;
73150;SDS011;61354;50.758;6.106;2022-07-22T06:58:18;8.38;;;5.35;;
73150;SDS011;61354;50.758;6.106;2022-07-22T07:00:44;8.93;;;5.32;;
73150;SDS011;61354;50.758;6.106;2022-07-22T07:03:10;7.43;;;5.47;;
73150;SDS011;61354;50.758;6.106;2022-07-22T07:05:42;10.25;;;5.45;;
73150;SDS011;61354;50.758;6.106;2022-07-22T07:08:08;8.00;;;5.38;;
73150;SDS011;61354;50.758;6.106;2022-07-22T07:10:34;8.48;;;5.22;;
73150;SDS011;61354;50.758;6.106;2022-07-22T07:12:59;9.40;;;5.45;;
73150;SDS011;61354;50.758;6.106;2022-07-22T07:15:25;8.02;;;5.22;;
73150;SDS011;61354;50.758;6.106;2022-07-22T07:17:53;8.43;;;5.28;;
73150;SDS011;61354;50.758;6.106;2022-07-22T07:20:19;8.35;;;5.47;;
73150;SDS011;61354;50.758;6.106;2022-07-22T07:22:45;11.48;;;6.28;;
73150;SDS011;61354;50.758;6.106;2022-07-22T07:25:11;12.65;;;6.55;;
73150;SDS011;61354;50.758;6.106;2022-07-22T07:27:37;11.82;;;6.93;;
73150;SDS011;61354;50.758;6.106;2022-07-22T07:30:03;11.73;;;6.15;;
73150;SDS011;61354;50.758;6.106;2022-07-22T07:32:30;10.70;;;6.85;;
73150;SDS011;61354;50.758;6.106;2022-07-22T07:34:55;10.65;;;7.13;;
73150;SDS011;61354;50.758;6.106;2022-07-22T07:37:21;10.68;;;7.05;;
73150;SDS011;61354;50.758;6.106;2022-07-22T07:39:46;10.30;;;7.35;;
73150;SDS011;61354;50.758;6.106;2022-07-22T07:42:12;11.68;;;7.53;;
73150;SDS011;61354;50.758;6.106;2022-07-22T07:44:38;13.13;;;7.60;;
73150;SDS011;61354;50.758;6.106;2022-07-22T07:47:03;10.75;;;7.07;;
73150;SDS011;61354;50.758;6.106;2022-07-22T07:49:29;10.48;;;7.30;;
73150;SDS011;61354;50.758;6.106;2022-07-22T07:51:55;13.75;;;8.73;;
73150;SDS011;61354;50.758;6.106;2022-07-22T07:54:20;13.32;;;8.60;;
73150;SDS011;61354;50.758;6.106;2022-07-22T07:56:46;16.45;;;9.70;;
73150;SDS011;61354;50.758;6.106;2022-07-22T07:59:12;13.63;;;9.43;;
73150;SDS011;61354;50.758;6.106;2022-07-22T08:01:38;14.07;;;9.77;;
73150;SDS011;61354;50.758;6.106;2022-07-22T08:04:03;14.60;;;9.73;;
73150;SDS011;61354;50.758;6.106;2022-07-22T08:06:29;14.80;;;10.15;;
73150;SDS011;61354;50.758;6.106;2022-07-22T08:08:55;14.90;;;9.32;;
73150;SDS011;61354;50.758;6.106;2022-07-22T08:11:21;14.73;;;10.23;;
73150;SDS011;61354;50.758;6.106;2022-07-22T08:13:46;17.67;;;10.73;;
73150;SDS011;61354;50.758;6.106;2022-07-22T08:16:12;15.38;;;9.90;;
73150;SDS011;61354;50.758;6.106;2022-07-22T08:18:38;15.48;;;10.30;;
73150;SDS011;61354;50.758;6.106;2022-07-22T08:21:03;15.20;;;9.77;;
73150;SDS011;61354;50.758;6.106;2022-07-22T08:23:29;16.35;;;10.80;;
73150;SDS011;61354;50.758;6.106;2022-07-22T08:25:55;15.00;;;9.52;;
73150;SDS011;61354;50.758;6.106;2022-07-22T08:28:20;15.30;;;9.55;;
73150;SDS011;61354;50.758;6.106;2022-07-22T08:30:46;15.68;;;10.07;;
73150;SDS011;61354;50.758;6.106;2022-07-22T08:33:12;14.05;;;9.68;;
73150;SDS011;61354;50.758;6.106;2022-07-22T08:35:37;15.70;;;10.15;;
73150;SDS011;61354;50.758;6.106;2022-07-22T08:38:03;16.27;;;10.40;;
73150;SDS011;61354;50.758;6.106;2022-07-22T08:40:28;15.90;;;9.75;;
73150;SDS011;61354;50.758;6.106;2022-07-22T08:42:54;16.83;;;10.00;;
73150;SDS011;61354;50.758;6.106;2022-07-22T08:45:20;15.13;;;9.27;;
73150;SDS011;61354;50.758;6.106;2022-07-22T08:47:49;16.80;;;9.68;;
73150;SDS011;61354;50.758;6.106;2022-07-22T08:50:16;17.60;;;10.52;;
73150;SDS011;61354;50.758;6.106;2022-07-22T08:52:45;16.02;;;10.18;;
73150;SDS011;61354;50.758;6.106;2022-07-22T08:55:11;16.98;;;9.70;;
73150;SDS011;61354;50.758;6.106;2022-07-22T08:57:36;17.27;;;10.10;;
73150;SDS011;61354;50.758;6.106;2022-07-22T09:00:07;15.35;;;10.57;;
73150;SDS011;61354;50.758;6.106;2022-07-22T09:02:36;17.50;;;10.55;;
73150;SDS011;61354;50.758;6.106;2022-07-22T09:05:05;15.75;;;10.15;;
73150;SDS011;61354;50.758;6.106;2022-07-22T09:07:33;16.33;;;10.38;;
73150;SDS011;61354;50.758;6.106;2022-07-22T09:10:04;16.55;;;10.23;;
73150;SDS011;61354;50.758;6.106;2022-07-22T09:12:32;14.68;;;9.18;;
73150;SDS011;61354;50.758;6.106;2022-07-22T09:15:00;15.65;;;10.07;;
73150;SDS011;61354;50.758;6.106;2022-07-22T09:17:31;15.27;;;9.32;;
73150;SDS011;61354;50.758;6.106;2022-07-22T09:20:01;13.98;;;8.55;;
73150;SDS011;61354;50.758;6.106;2022-07-22T09:22:33;12.93;;;9.25;;
73150;SDS011;61354;50.758;6.106;2022-07-22T09:27:45;13.73;;;8.65;;
73150;SDS011;61354;50.758;6.106;2022-07-22T09:30:12;16.25;;;9.15;;
73150;SDS011;61354;50.758;6.106;2022-07-22T09:32:40;13.93;;;9.30;;
73150;SDS011;61354;50.758;6.106;2022-07-22T09:35:07;16.65;;;9.23;;
73150;SDS011;61354;50.758;6.106;2022-07-22T09:37:33;13.57;;;9.45;;
73150;SDS011;61354;50.758;6.106;2022-07-22T09:42:55;13.80;;;8.73;;
73150;SDS011;61354;50.758;6.106;2022-07-22T09:47:49;14.75;;;9.27;;
73150;SDS011;61354;50.758;6.106;2022-07-22T09:50:22;14.43;;;9.80;;
73150;SDS011;61354;50.758;6.106;2022-07-22T09:52:50;14.80;;;8.98;;
73150;SDS011;61354;50.758;6.106;2022-07-22T09:55:17;14.15;;;8.77;;
73150;SDS011;61354;50.758;6.106;2022-07-22T10:00:11;14.60;;;9.18;;
73150;SDS011;61354;50.758;6.106;2022-07-22T10:02:45;15.30;;;9.10;;
73150;SDS011;61354;50.758;6.106;2022-07-22T10:05:14;15.40;;;9.05;;
73150;SDS011;61354;50.758;6.106;2022-07-22T10:07:41;13.68;;;8.80;;
73150;SDS011;61354;50.758;6.106;2022-07-22T10:10:08;15.23;;;9.65;;
73150;SDS011;61354;50.758;6.106;2022-07-22T10:12:35;15.25;;;9.43;;
73150;SDS011;61354;50.758;6.106;2022-07-22T10:15:03;15.50;;;8.80;;
73150;SDS011;61354;50.758;6.106;2022-07-22T10:17:29;16.95;;;9.43;;
73150;SDS011;61354;50.758;6.106;2022-07-22T10:19:55;16.60;;;9.25;;
73150;SDS011;61354;50.758;6.106;2022-07-22T10:25:07;14.68;;;9.25;;
73150;SDS011;61354;50.758;6.106;2022-07-22T10:32:41;12.82;;;7.78;;
73150;SDS011;61354;50.758;6.106;2022-07-22T10:37:36;16.08;;;9.07;;
73150;SDS011;61354;50.758;6.106;2022-07-22T10:45:25;14.35;;;8.18;;
73150;SDS011;61354;50.758;6.106;2022-07-22T10:48:15;14.95;;;8.15;;
73150;SDS011;61354;50.758;6.106;2022-07-22T10:50:51;13.32;;;8.35;;
73150;SDS011;61354;50.758;6.106;2022-07-22T10:53:38;14.45;;;8.07;;
73150;SDS011;61354;50.758;6.106;2022-07-22T10:56:08;14.82;;;9.27;;
73150;SDS011;61354;50.758;6.106;2022-07-22T11:01:35;14.02;;;8.55;;
73150;SDS011;61354;50.758;6.106;2022-07-22T11:04:09;12.73;;;7.53;;
73150;SDS011;61354;50.758;6.106;2022-07-22T11:06:37;12.85;;;8.25;;
73150;SDS011;61354;50.758;6.106;2022-07-22T11:09:03;15.07;;;8.10;;
73150;SDS011;61354;50.758;6.106;2022-07-22T11:11:32;12.77;;;8.43;;
73150;SDS011;61354;50.758;6.106;2022-07-22T11:14:11;13.70;;;7.63;;
73150;SDS011;61354;50.758;6.106;2022-07-22T11:16:37;13.18;;;7.63;;
73150;SDS011;61354;50.758;6.106;2022-07-22T11:19:03;13.10;;;7.63;;
73150;SDS011;61354;50.758;6.106;2022-07-22T11:21:29;14.32;;;7.80;;
73150;SDS011;61354;50.758;6.106;2022-07-22T11:23:57;12.90;;;7.53;;
73150;SDS011;61354;50.758;6.106;2022-07-22T11:26:25;14.63;;;7.97;;
73150;SDS011;61354;50.758;6.106;2022-07-22T11:31:23;11.30;;;7.00;;
73150;SDS011;61354;50.758;6.106;2022-07-22T11:33:49;13.18;;;6.85;;
73150;SDS011;61354;50.758;6.106;2022-07-22T11:36:15;13.15;;;7.65;;
73150;SDS011;61354;50.758;6.106;2022-07-22T11:38:43;14.10;;;8.32;;
73150;SDS011;61354;50.758;6.106;2022-07-22T11:41:14;14.43;;;7.25;;
73150;SDS011;61354;50.758;6.106;2022-07-22T11:43:42;16.17;;;8.35;;
73150;SDS011;61354;50.758;6.106;2022-07-22T11:46:09;12.70;;;7.60;;
73150;SDS011;61354;50.758;6.106;2022-07-22T11:48:35;12.07;;;8.13;;
73150;SDS011;61354;50.758;6.106;2022-07-22T11:51:03;14.35;;;7.72;;
73150;SDS011;61354;50.758;6.106;2022-07-22T11:53:30;12.70;;;7.65;;
73150;SDS011;61354;50.758;6.106;2022-07-22T11:55:56;13.48;;;7.63;;
73150;SDS011;61354;50.758;6.106;2022-07-22T11:58:36;13.85;;;7.93;;
73150;SDS011;61354;50.758;6.106;2022-07-22T12:01:07;14.00;;;8.23;;
73150;SDS011;61354;50.758;6.106;2022-07-22T12:06:01;12.25;;;7.13;;
73150;SDS011;61354;50.758;6.106;2022-07-22T12:08:28;13.30;;;7.25;;
73150;SDS011;61354;50.758;6.106;2022-07-22T12:10:55;11.77;;;7.38;;
73150;SDS011;61354;50.758;6.106;2022-07-22T12:15:52;12.30;;;7.68;;
73150;SDS011;61354;50.758;6.106;2022-07-22T12:18:19;15.27;;;7.68;;
73150;SDS011;61354;50.758;6.106;2022-07-22T12:20:47;12.18;;;6.95;;
73150;SDS011;61354;50.758;6.106;2022-07-22T12:23:13;12.13;;;7.65;;
73150;SDS011;61354;50.758;6.106;2022-07-22T12:25:49;14.75;;;7.80;;
73150;SDS011;61354;50.758;6.106;2022-07-22T12:28:15;11.90;;;7.57;;
73150;SDS011;61354;50.758;6.106;2022-07-22T12:30:41;12.93;;;7.50;;
73150;SDS011;61354;50.758;6.106;2022-07-22T12:33:17;12.55;;;7.60;;
73150;SDS011;61354;50.758;6.106;2022-07-22T12:35:43;12.55;;;7.15;;
73150;SDS011;61354;50.758;6.106;2022-07-22T12:38:10;10.95;;;7.25;;
73150;SDS011;61354;50.758;6.106;2022-07-22T12:40:36;13.50;;;7.57;;
73150;SDS011;61354;50.758;6.106;2022-07-22T12:45:37;11.68;;;7.03;;
73150;SDS011;61354;50.758;6.106;2022-07-22T12:48:05;10.77;;;7.10;;
73150;SDS011;61354;50.758;6.106;2022-07-22T12:52:59;11.10;;;6.95;;
73150;SDS011;61354;50.758;6.106;2022-07-22T12:55:30;12.98;;;7.47;;
73150;SDS011;61354;50.758;6.106;2022-07-22T12:58:00;10.95;;;6.68;;
73150;SDS011;61354;50.758;6.106;2022-07-22T13:00:27;12.65;;;7.20;;
73150;SDS011;61354;50.758;6.106;2022-07-22T13:02:55;12.30;;;7.43;;
73150;SDS011;61354;50.758;6.106;2022-07-22T13:05:21;10.32;;;6.95;;
73150;SDS011;61354;50.758;6.106;2022-07-22T13:07:47;12.35;;;7.38;;
73150;SDS011;61354;50.758;6.106;2022-07-22T13:10:13;13.05;;;6.75;;
73150;SDS011;61354;50.758;6.106;2022-07-22T13:12:39;10.27;;;6.38;;
73150;SDS011;61354;50.758;6.106;2022-07-22T13:15:06;12.85;;;7.72;;
73150;SDS011;61354;50.758;6.106;2022-07-22T13:17:31;14.38;;;7.22;;
73150;SDS011;61354;50.758;6.106;2022-07-22T13:19:57;13.38;;;7.35;;
73150;SDS011;61354;50.758;6.106;2022-07-22T13:22:23;11.57;;;7.07;;
73150;SDS011;61354;50.758;6.106;2022-07-22T13:24:48;14.50;;;7.50;;
73150;SDS011;61354;50.758;6.106;2022-07-22T13:27:14;13.07;;;7.55;;
73150;SDS011;61354;50.758;6.106;2022-07-22T13:29:40;11.27;;;7.10;;
73150;SDS011;61354;50.758;6.106;2022-07-22T13:32:06;13.10;;;7.43;;
73150;SDS011;61354;50.758;6.106;2022-07-22T13:34:31;12.25;;;7.45;;
73150;SDS011;61354;50.758;6.106;2022-07-22T13:36:57;11.13;;;6.82;;
73150;SDS011;61354;50.758;6.106;2022-07-22T13:39:22;13.77;;;8.10;;
73150;SDS011;61354;50.758;6.106;2022-07-22T13:41:49;12.02;;;7.70;;
73150;SDS011;61354;50.758;6.106;2022-07-22T13:44:14;14.70;;;8.23;;
73150;SDS011;61354;50.758;6.106;2022-07-22T13:46:40;11.90;;;6.95;;
73150;SDS011;61354;50.758;6.106;2022-07-22T13:49:06;11.15;;;7.68;;
73150;SDS011;61354;50.758;6.106;2022-07-22T13:51:31;10.98;;;7.65;;
73150;SDS011;61354;50.758;6.106;2022-07-22T13:53:57;13.38;;;7.72;;
73150;SDS011;61354;50.758;6.106;2022-07-22T13:56:23;10.43;;;6.70;;
73150;SDS011;61354;50.758;6.106;2022-07-22T13:58:48;13.20;;;7.65;;
73150;SDS011;61354;50.758;6.106;2022-07-22T14:01:14;12.18;;;7.38;;
73150;SDS011;61354;50.758;6.106;2022-07-22T14:03:40;14.05;;;8.20;;
73150;SDS011;61354;50.758;6.106;2022-07-22T14:06:05;14.13;;;8.10;;
73150;SDS011;61354;50.758;6.106;2022-07-22T14:08:31;15.07;;;8.07;;
73150;SDS011;61354;50.758;6.106;2022-07-22T14:10:57;18.02;;;9.50;;
73150;SDS011;61354;50.758;6.106;2022-07-22T14:13:23;12.25;;;7.82;;
73150;SDS011;61354;50.758;6.106;2022-07-22T14:15:49;15.93;;;8.05;;
73150;SDS011;61354;50.758;6.106;2022-07-22T14:18:15;12.27;;;7.60;;
73150;SDS011;61354;50.758;6.106;2022-07-22T14:20:40;13.60;;;7.70;;
73150;SDS011;61354;50.758;6.106;2022-07-22T14:23:07;12.52;;;6.95;;
73150;SDS011;61354;50.758;6.106;2022-07-22T14:25:36;12.50;;;7.35;;
73150;SDS011;61354;50.758;6.106;2022-07-22T14:28:03;15.30;;;8.65;;
73150;SDS011;61354;50.758;6.106;2022-07-22T14:30:29;12.13;;;7.70;;
73150;SDS011;61354;50.758;6.106;2022-07-22T14:32:56;13.68;;;8.10;;
73150;SDS011;61354;50.758;6.106;2022-07-22T14:35:22;12.40;;;8.10;;
73150;SDS011;61354;50.758;6.106;2022-07-22T14:37:47;15.50;;;7.65;;
73150;SDS011;61354;50.758;6.106;2022-07-22T14:40:13;13.95;;;7.85;;
73150;SDS011;61354;50.758;6.106;2022-07-22T14:42:38;13.18;;;8.40;;
73150;SDS011;61354;50.758;6.106;2022-07-22T14:45:05;12.93;;;7.95;;
73150;SDS011;61354;50.758;6.106;2022-07-22T14:47:31;12.90;;;8.27;;
73150;SDS011;61354;50.758;6.106;2022-07-22T14:49:57;12.15;;;8.50;;
73150;SDS011;61354;50.758;6.106;2022-07-22T14:52:22;12.60;;;8.02;;
73150;SDS011;61354;50.758;6.106;2022-07-22T14:54:48;11.50;;;7.75;;
73150;SDS011;61354;50.758;6.106;2022-07-22T14:57:13;14.32;;;8.35;;
73150;SDS011;61354;50.758;6.106;2022-07-22T14:59:39;12.73;;;8.15;;
73150;SDS011;61354;50.758;6.106;2022-07-22T15:02:05;15.45;;;9.20;;
73150;SDS011;61354;50.758;6.106;2022-07-22T15:04:31;15.20;;;8.73;;
73150;SDS011;61354;50.758;6.106;2022-07-22T15:06:57;12.75;;;7.30;;
73150;SDS011;61354;50.758;6.106;2022-07-22T15:09:22;13.98;;;9.55;;
73150;SDS011;61354;50.758;6.106;2022-07-22T15:11:51;15.05;;;8.23;;
73150;SDS011;61354;50.758;6.106;2022-07-22T15:14:17;14.77;;;9.77;;